Time;durP1;ratioP1;P1;durP2;ratioP2;P2;SDS_P1;SDS_P2;PMS_P1;PMS_P2;Temp;Humidity;BMP_temperature;BMP_pressure;BME280_temperature;BME280_humidity;BME280_pressure;Samples;Min_cycle;Max_cycle;Signal;HPM_P1;HPM_P2
2023/12/05 00:00:06;;;;;;;17.97;14.00;;;0.40;99.90;;;;;;5033141;28;20448;-77
2023/12/05 00:02:41;;;;;;;19.53;14.53;;;0.40;99.90;;;;;;5034662;28;21044;-77
2023/12/05 00:05:10;;;;;;;18.53;15.90;;;0.40;99.90;;;;;;5033299;28;20481;-77
2023/12/05 00:07:40;;;;;;;19.43;15.37;;;0.40;99.90;;;;;;5033233;28;20555;-77
2023/12/05 00:10:09;;;;;;;18.07;15.90;;;0.40;99.90;;;;;;5033059;28;20473;-77
2023/12/05 00:12:37;;;;;;;20.57;17.13;;;0.40;99.90;;;;;;5034461;28;20501;-77
2023/12/05 00:15:06;;;;;;;19.60;14.80;;;0.40;99.90;;;;;;5033130;28;20456;-76
2023/12/05 00:17:35;;;;;;;20.27;15.83;;;0.40;99.90;;;;;;5032922;28;20864;-76
2023/12/05 00:20:05;;;;;;;22.67;15.67;;;0.40;99.90;;;;;;5033876;28;20772;-77
2023/12/05 00:22:33;;;;;;;20.60;15.40;;;0.30;99.90;;;;;;5032722;28;20476;-77
2023/12/05 00:25:02;;;;;;;19.20;16.20;;;0.30;99.90;;;;;;5032686;28;20964;-77
2023/12/05 00:27:31;;;;;;;22.87;17.17;;;0.30;99.90;;;;;;5032648;28;20491;-76
2023/12/05 00:30:00;;;;;;;26.10;16.13;;;0.30;99.90;;;;;;5033977;28;20465;-77
2023/12/05 00:32:28;;;;;;;20.33;17.30;;;0.30;99.90;;;;;;5032835;28;20470;-77
2023/12/05 00:34:56;;;;;;;21.00;15.53;;;0.30;99.90;;;;;;5032526;28;20456;-77
2023/12/05 00:37:26;;;;;;;20.57;15.73;;;0.40;99.90;;;;;;5033377;28;20449;-77
2023/12/05 00:39:55;;;;;;;22.20;16.73;;;0.40;99.90;;;;;;5032592;28;20488;-77
2023/12/05 00:42:23;;;;;;;18.17;16.13;;;0.40;99.90;;;;;;5032679;28;20553;-76
2023/12/05 00:44:51;;;;;;;21.63;16.40;;;0.40;99.90;;;;;;5032440;28;20960;-76
2023/12/05 00:47:19;;;;;;;21.10;16.40;;;0.40;99.90;;;;;;5032585;28;20443;-76
2023/12/05 00:49:48;;;;;;;21.37;17.17;;;0.40;99.90;;;;;;5032386;28;20519;-77
2023/12/05 00:52:16;;;;;;;23.47;18.73;;;0.40;99.90;;;;;;5032271;28;20444;-77
2023/12/05 00:54:45;;;;;;;22.40;17.87;;;0.40;99.90;;;;;;5032250;28;20481;-77
2023/12/05 00:57:14;;;;;;;22.27;17.00;;;0.40;99.90;;;;;;5032321;28;20460;-77
2023/12/05 00:59:42;;;;;;;20.73;15.83;;;0.40;99.90;;;;;;5032216;28;20459;-77
2023/12/05 01:02:10;;;;;;;22.90;16.53;;;0.40;99.90;;;;;;5033374;28;20445;-76
2023/12/05 01:04:38;;;;;;;20.57;16.30;;;0.40;99.90;;;;;;5031586;28;20827;-77
2023/12/05 01:07:12;;;;;;;20.50;15.90;;;0.40;99.90;;;;;;5032222;28;20441;-76
2023/12/05 01:09:40;;;;;;;23.27;17.60;;;0.40;99.90;;;;;;5033349;28;20805;-77
2023/12/05 01:12:12;;;;;;;24.90;17.97;;;0.40;99.90;;;;;;5031937;28;20598;-77
2023/12/05 01:14:40;;;;;;;22.53;17.67;;;0.40;99.90;;;;;;5032056;28;20446;-77
2023/12/05 01:17:08;;;;;;;24.40;18.50;;;0.40;99.90;;;;;;5033321;28;20438;-77
2023/12/05 01:19:37;;;;;;;23.40;17.73;;;0.40;99.90;;;;;;5032062;28;20816;-77
2023/12/05 01:22:06;;;;;;;21.80;16.97;;;0.40;99.90;;;;;;5032145;28;20813;-77
2023/12/05 01:24:34;;;;;;;25.90;18.30;;;0.40;99.90;;;;;;5031917;28;20438;-76
2023/12/05 01:27:03;;;;;;;23.90;18.37;;;0.40;99.90;;;;;;5031938;28;20463;-77
2023/12/05 01:29:33;;;;;;;24.60;17.53;;;0.40;99.90;;;;;;5031996;28;20485;-77
2023/12/05 01:32:01;;;;;;;23.60;17.43;;;0.40;99.90;;;;;;5031702;28;20468;-78
2023/12/05 01:34:29;;;;;;;27.43;19.03;;;0.50;99.90;;;;;;5031729;28;20480;-77
2023/12/05 01:36:57;;;;;;;21.10;17.40;;;0.50;99.90;;;;;;5032379;28;20443;-77
2023/12/05 01:39:26;;;;;;;23.30;18.60;;;0.40;99.90;;;;;;5031752;28;20474;-77
2023/12/05 01:41:54;;;;;;;23.87;19.43;;;0.40;99.90;;;;;;5032116;28;20447;-78
2023/12/05 01:44:22;;;;;;;22.73;18.83;;;0.40;99.90;;;;;;5031863;28;20476;-76
2023/12/05 01:46:53;;;;;;;24.03;18.00;;;0.40;99.90;;;;;;5031705;28;20891;-77
2023/12/05 01:49:21;;;;;;;23.60;18.50;;;0.40;99.90;;;;;;5031716;28;20477;-76
2023/12/05 01:51:58;;;;;;;26.43;18.50;;;0.40;99.90;;;;;;5031672;28;20464;-77
2023/12/05 01:54:27;;;;;;;22.00;17.43;;;0.40;99.90;;;;;;5033530;28;20494;-76
2023/12/05 01:56:57;;;;;;;24.13;18.50;;;0.40;99.90;;;;;;5031750;28;20467;-77
2023/12/05 01:59:26;;;;;;;25.90;20.07;;;0.40;99.90;;;;;;5033120;28;20435;-77
2023/12/05 02:01:56;;;;;;;29.07;20.30;;;0.40;99.90;;;;;;5032926;28;20956;-76
2023/12/05 02:04:25;;;;;;;24.83;18.37;;;0.40;99.90;;;;;;5031514;28;21066;-77
2023/12/05 02:06:54;;;;;;;22.63;17.20;;;0.50;99.90;;;;;;5031625;28;20839;-77
2023/12/05 02:09:23;;;;;;;27.07;18.70;;;0.40;99.90;;;;;;5031698;28;20490;-77
2023/12/05 02:11:51;;;;;;;23.93;18.00;;;0.40;99.90;;;;;;5031473;28;20482;-77
2023/12/05 02:14:20;;;;;;;22.83;18.70;;;0.40;99.90;;;;;;5032774;28;20456;-76
2023/12/05 02:16:54;;;;;;;23.83;17.67;;;0.40;99.90;;;;;;5036344;28;20471;-77
2023/12/05 02:19:49;;;;;;;25.80;18.37;;;0.40;99.90;;;;;;5036733;28;20421;-76
2023/12/05 02:22:35;;;;;;;22.47;17.83;;;0.40;99.90;;;;;;5032701;28;20441;-77
2023/12/05 02:25:13;;;;;;;24.63;18.20;;;0.40;99.90;;;;;;5035282;28;20445;-77
2023/12/05 02:27:43;;;;;;;26.00;18.40;;;0.40;99.90;;;;;;5036818;28;20518;-77
2023/12/05 02:30:14;;;;;;;25.30;19.23;;;0.40;99.90;;;;;;5035275;28;20479;-77
2023/12/05 02:32:43;;;;;;;24.77;18.60;;;0.40;99.90;;;;;;5034993;28;20486;-76
2023/12/05 02:35:11;;;;;;;23.57;19.00;;;0.40;99.90;;;;;;5035153;28;20487;-77
2023/12/05 02:37:52;;;;;;;26.27;18.90;;;0.40;99.90;;;;;;5035027;28;20544;-76
2023/12/05 02:40:27;;;;;;;24.73;19.60;;;0.40;99.90;;;;;;5034971;28;20450;-77
2023/12/05 02:43:00;;;;;;;27.20;18.70;;;0.40;99.90;;;;;;5034745;28;20475;-77
2023/12/05 02:45:31;;;;;;;24.47;18.27;;;0.40;99.90;;;;;;5034853;28;20442;-76
2023/12/05 02:48:02;;;;;;;25.20;18.83;;;0.40;99.90;;;;;;5035487;28;20912;-76
2023/12/05 02:50:31;;;;;;;27.07;20.73;;;0.40;99.90;;;;;;5034824;28;20956;-77
2023/12/05 02:52:59;;;;;;;25.97;18.10;;;0.40;99.90;;;;;;5036471;28;20456;-77
2023/12/05 02:55:27;;;;;;;28.80;20.67;;;0.40;99.90;;;;;;5034572;28;20937;-77
2023/12/05 02:57:57;;;;;;;26.63;21.37;;;0.40;99.90;;;;;;5035827;28;20518;-76
2023/12/05 03:00:26;;;;;;;26.37;19.13;;;0.40;99.90;;;;;;5034500;28;20435;-77
2023/12/05 03:02:54;;;;;;;27.50;20.03;;;0.40;99.90;;;;;;5034428;28;20984;-76
2023/12/05 03:05:22;;;;;;;23.20;18.63;;;0.40;99.90;;;;;;5034478;28;20457;-77
2023/12/05 03:07:51;;;;;;;25.67;21.20;;;0.40;99.90;;;;;;5034398;28;20447;-77
2023/12/05 03:10:19;;;;;;;28.97;21.53;;;0.40;99.90;;;;;;5035604;28;20439;-77
2023/12/05 03:12:47;;;;;;;28.83;20.70;;;0.40;99.90;;;;;;5034228;28;20564;-77
2023/12/05 03:15:17;;;;;;;27.07;20.53;;;0.40;99.90;;;;;;5034225;28;20455;-77
2023/12/05 03:17:45;;;;;;;28.93;19.60;;;0.40;99.90;;;;;;5034402;28;20482;-77
2023/12/05 03:20:14;;;;;;;25.40;19.03;;;0.40;99.90;;;;;;5034059;28;20444;-77
2023/12/05 03:22:45;;;;;;;28.10;20.13;;;0.40;99.90;;;;;;5034118;28;20559;-77
2023/12/05 03:25:14;;;;;;;24.10;18.47;;;0.40;99.90;;;;;;5034040;28;20904;-77
2023/12/05 03:27:42;;;;;;;26.60;19.80;;;0.40;99.90;;;;;;5034615;28;20443;-77
2023/12/05 03:30:11;;;;;;;31.43;23.53;;;0.40;99.90;;;;;;5033897;28;20447;-77
2023/12/05 03:32:41;;;;;;;31.13;22.63;;;0.40;99.90;;;;;;5033761;28;20981;-77
2023/12/05 03:35:09;;;;;;;25.47;19.93;;;0.40;99.90;;;;;;5035084;28;20452;-76
2023/12/05 03:37:38;;;;;;;27.30;20.10;;;0.40;99.90;;;;;;5033693;28;20941;-78
2023/12/05 03:40:07;;;;;;;27.73;21.27;;;0.40;99.90;;;;;;5033743;28;20451;-77
2023/12/05 03:42:36;;;;;;;25.67;19.87;;;0.40;99.90;;;;;;5033677;28;20897;-77
2023/12/05 03:45:05;;;;;;;32.77;22.23;;;0.40;99.90;;;;;;5033617;28;20455;-77
2023/12/05 03:47:34;;;;;;;27.20;21.23;;;0.40;99.90;;;;;;5033909;28;21003;-76
2023/12/05 03:50:04;;;;;;;27.13;20.33;;;0.40;99.90;;;;;;5033873;28;20884;-77
2023/12/05 03:52:32;;;;;;;28.07;20.80;;;0.50;99.90;;;;;;5033450;28;20544;-77
2023/12/05 03:55:00;;;;;;;28.17;19.70;;;0.50;99.90;;;;;;5033375;28;20551;-77
2023/12/05 03:57:29;;;;;;;27.97;20.70;;;0.50;99.90;;;;;;5034637;28;20782;-77
2023/12/05 03:59:57;;;;;;;28.37;23.10;;;0.50;99.90;;;;;;5033246;28;20919;-77
2023/12/05 04:02:25;;;;;;;29.33;21.10;;;0.50;99.90;;;;;;5033247;28;20527;-76
2023/12/05 04:04:53;;;;;;;28.90;22.10;;;0.60;99.90;;;;;;5033225;28;20840;-77
2023/12/05 04:07:23;;;;;;;26.73;21.10;;;0.50;99.90;;;;;;5033241;28;20476;-77
2023/12/05 04:09:51;;;;;;;24.43;20.73;;;0.50;99.90;;;;;;5034698;28;20851;-77
2023/12/05 04:12:21;;;;;;;29.07;22.13;;;0.50;99.90;;;;;;5033337;28;20493;-76
2023/12/05 04:14:49;;;;;;;25.93;20.57;;;0.50;99.90;;;;;;5033067;28;20454;-77
2023/12/05 04:17:18;;;;;;;29.10;21.70;;;0.40;99.90;;;;;;5033549;28;20444;-76
2023/12/05 04:19:46;;;;;;;28.23;21.13;;;0.50;99.90;;;;;;5034154;28;20439;-76
2023/12/05 04:22:14;;;;;;;26.50;21.17;;;0.40;99.90;;;;;;5032890;28;20502;-76
2023/12/05 04:24:44;;;;;;;25.40;21.00;;;0.40;99.90;;;;;;5032819;28;20452;-77
2023/12/05 04:27:12;;;;;;;24.23;21.23;;;0.40;99.90;;;;;;5032809;28;20451;-77
2023/12/05 04:29:40;;;;;;;29.33;20.50;;;0.50;99.90;;;;;;5032768;28;20457;-76
2023/12/05 04:32:09;;;;;;;29.50;22.57;;;0.50;99.90;;;;;;5033890;28;20570;-76
2023/12/05 04:34:41;;;;;;;29.90;21.97;;;0.50;99.90;;;;;;5032563;28;20507;-76
2023/12/05 04:37:11;;;;;;;30.27;22.23;;;0.50;99.90;;;;;;5032600;28;20451;-76
2023/12/05 04:39:40;;;;;;;25.43;21.30;;;0.50;99.90;;;;;;5033215;28;20432;-76
2023/12/05 04:42:10;;;;;;;29.70;21.77;;;0.50;99.90;;;;;;5032449;28;20439;-76
2023/12/05 04:44:38;;;;;;;29.40;20.57;;;0.40;99.90;;;;;;5032509;28;20574;-76
2023/12/05 04:47:06;;;;;;;29.90;22.50;;;0.50;99.90;;;;;;5032573;28;20483;-76
2023/12/05 04:49:34;;;;;;;28.50;23.37;;;0.50;99.90;;;;;;5032436;28;20459;-77
2023/12/05 04:52:03;;;;;;;28.63;23.80;;;0.50;99.90;;;;;;5033467;28;20471;-76
2023/12/05 04:54:31;;;;;;;27.77;21.87;;;0.50;99.90;;;;;;5032346;28;20957;-77
2023/12/05 04:56:59;;;;;;;30.60;21.50;;;0.50;99.90;;;;;;5032410;28;20452;-77
2023/12/05 04:59:29;;;;;;;30.73;23.90;;;0.50;99.90;;;;;;5032276;28;20988;-76
2023/12/05 05:01:57;;;;;;;28.73;23.50;;;0.40;99.90;;;;;;5032244;28;20857;-76
2023/12/05 05:04:26;;;;;;;28.20;22.00;;;0.40;99.90;;;;;;5032116;28;20511;-76
2023/12/05 05:06:54;;;;;;;27.23;21.60;;;0.50;99.90;;;;;;5032180;28;20443;-76
2023/12/05 05:09:22;;;;;;;28.90;22.20;;;0.40;99.90;;;;;;5032132;28;20964;-76
2023/12/05 05:11:51;;;;;;;27.40;20.90;;;0.40;99.90;;;;;;5032023;28;20447;-77
2023/12/05 05:14:19;;;;;;;27.27;22.60;;;0.40;99.90;;;;;;5033325;28;20505;-76
2023/12/05 05:16:48;;;;;;;31.20;23.33;;;0.40;99.90;;;;;;5032212;28;20455;-76
2023/12/05 05:19:17;;;;;;;31.60;24.37;;;0.40;99.90;;;;;;5033279;28;20842;-77
2023/12/05 05:21:45;;;;;;;29.47;24.00;;;0.40;99.90;;;;;;5032073;28;20492;-76
2023/12/05 05:24:13;;;;;;;28.87;22.63;;;0.40;99.90;;;;;;5031839;28;20472;-76
2023/12/05 05:26:42;;;;;;;29.73;22.90;;;0.50;99.90;;;;;;5033208;28;20434;-76
2023/12/05 05:29:10;;;;;;;28.33;23.60;;;0.50;99.90;;;;;;5031937;28;20489;-77
2023/12/05 05:31:38;;;;;;;29.43;21.93;;;0.40;99.90;;;;;;5031863;28;20470;-77
2023/12/05 05:34:08;;;;;;;30.30;24.77;;;0.40;99.90;;;;;;5031909;28;20563;-77
2023/12/05 05:36:36;;;;;;;26.80;23.10;;;0.40;99.90;;;;;;5032029;28;20436;-77
2023/12/05 05:39:04;;;;;;;29.37;23.80;;;0.40;99.90;;;;;;5032053;28;20505;-76
2023/12/05 05:41:33;;;;;;;30.03;22.83;;;0.50;99.90;;;;;;5032073;28;20452;-77
2023/12/05 05:44:02;;;;;;;30.60;25.33;;;0.40;99.90;;;;;;5032919;28;20509;-76
2023/12/05 05:46:30;;;;;;;27.77;22.97;;;0.50;99.90;;;;;;5031754;28;20459;-76
2023/12/05 05:48:58;;;;;;;31.43;23.33;;;0.50;99.90;;;;;;5031806;28;20455;-76
2023/12/05 05:51:28;;;;;;;30.83;24.70;;;0.40;99.90;;;;;;5034851;28;20480;-76
2023/12/05 05:53:57;;;;;;;31.60;24.10;;;0.40;99.90;;;;;;5035624;28;20471;-76
2023/12/05 05:56:25;;;;;;;30.77;24.20;;;0.40;99.90;;;;;;5035645;28;20456;-76
2023/12/05 05:58:53;;;;;;;31.03;24.03;;;0.40;99.90;;;;;;5035614;28;20514;-77
2023/12/05 06:01:22;;;;;;;29.90;23.63;;;0.40;99.90;;;;;;5036738;28;20439;-76
2023/12/05 06:03:50;;;;;;;28.93;22.33;;;0.40;99.90;;;;;;5035491;28;20538;-76
2023/12/05 06:06:19;;;;;;;29.90;22.30;;;0.40;99.90;;;;;;5035740;28;20889;-76
2023/12/05 06:08:48;;;;;;;33.30;25.53;;;0.40;99.90;;;;;;5035405;28;20505;-77
2023/12/05 06:11:17;;;;;;;27.97;23.77;;;0.40;99.90;;;;;;5035451;28;20493;-76
2023/12/05 06:13:45;;;;;;;30.37;23.90;;;0.40;99.90;;;;;;5035232;28;20474;-76
2023/12/05 06:16:13;;;;;;;30.20;23.67;;;0.40;99.90;;;;;;5035351;28;20453;-77
2023/12/05 06:18:41;;;;;;;32.07;22.73;;;0.40;99.90;;;;;;5035334;28;20473;-76
2023/12/05 06:21:10;;;;;;;36.00;26.67;;;0.40;99.90;;;;;;5035596;28;20451;-77
2023/12/05 06:23:40;;;;;;;29.43;23.60;;;0.50;99.90;;;;;;5035470;28;20869;-77
2023/12/05 06:26:10;;;;;;;31.30;23.93;;;0.40;99.90;;;;;;5035264;28;20541;-77
2023/12/05 06:28:38;;;;;;;33.30;23.90;;;0.40;99.90;;;;;;5035144;28;20876;-76
2023/12/05 06:31:07;;;;;;;31.53;24.63;;;0.50;99.90;;;;;;5035073;28;20446;-77
2023/12/05 06:33:35;;;;;;;29.70;25.30;;;0.40;99.90;;;;;;5034781;28;20481;-76
2023/12/05 06:36:04;;;;;;;29.67;24.63;;;0.40;99.90;;;;;;5034823;28;20465;-77
2023/12/05 06:38:32;;;;;;;30.00;25.00;;;0.40;99.90;;;;;;5034981;28;21014;-76
2023/12/05 06:41:01;;;;;;;33.03;24.00;;;0.40;99.90;;;;;;5035128;28;20445;-76
2023/12/05 06:43:30;;;;;;;33.70;25.73;;;0.40;99.90;;;;;;5034638;28;20480;-76
2023/12/05 06:45:59;;;;;;;29.97;24.53;;;0.40;99.90;;;;;;5034718;28;20443;-76
2023/12/05 06:48:27;;;;;;;30.40;25.67;;;0.40;99.90;;;;;;5034604;28;21066;-76
2023/12/05 06:50:56;;;;;;;33.30;24.90;;;0.40;99.90;;;;;;5034941;28;20443;-76
2023/12/05 06:53:24;;;;;;;31.40;24.97;;;0.40;99.90;;;;;;5035638;28;20471;-76
2023/12/05 06:55:53;;;;;;;36.27;27.77;;;0.40;99.90;;;;;;5034471;28;20957;-76
2023/12/05 06:58:22;;;;;;;34.87;25.23;;;0.40;99.90;;;;;;5034449;28;20454;-76
2023/12/05 07:00:51;;;;;;;37.60;27.13;;;0.40;99.90;;;;;;5034459;28;20543;-76
2023/12/05 07:03:20;;;;;;;33.33;26.20;;;0.40;99.90;;;;;;5034853;28;20463;-76
2023/12/05 07:05:48;;;;;;;36.13;27.50;;;0.40;99.90;;;;;;5034554;28;20456;-76
2023/12/05 07:08:18;;;;;;;33.87;26.37;;;0.40;99.90;;;;;;5034304;28;20453;-76
2023/12/05 07:10:47;;;;;;;31.83;25.00;;;0.40;99.90;;;;;;5034261;28;20517;-78
2023/12/05 07:13:15;;;;;;;34.87;26.47;;;0.40;99.90;;;;;;5034106;28;20494;-76
2023/12/05 07:15:43;;;;;;;38.50;26.53;;;0.50;99.90;;;;;;5034623;28;20441;-77
2023/12/05 07:18:13;;;;;;;36.37;27.60;;;0.40;99.90;;;;;;5034714;28;20449;-78
2023/12/05 07:20:42;;;;;;;32.37;25.63;;;0.40;99.90;;;;;;5034446;28;20441;-76
2023/12/05 07:23:10;;;;;;;34.03;25.50;;;0.40;99.90;;;;;;5033963;28;20558;-76
2023/12/05 07:25:38;;;;;;;30.00;24.63;;;0.40;99.90;;;;;;5034267;28;20448;-76
2023/12/05 07:28:06;;;;;;;38.37;29.50;;;0.40;99.90;;;;;;5035504;28;20443;-77
2023/12/05 07:30:34;;;;;;;39.20;27.83;;;0.40;99.90;;;;;;5033783;28;20506;-76
2023/12/05 07:33:03;;;;;;;34.70;26.83;;;0.40;99.90;;;;;;5033765;28;20889;-77
2023/12/05 07:35:32;;;;;;;35.30;27.47;;;0.40;99.90;;;;;;5034094;28;20480;-77
2023/12/05 07:38:01;;;;;;;40.50;29.70;;;0.40;99.90;;;;;;5033936;28;20445;-77
2023/12/05 07:40:29;;;;;;;35.60;26.67;;;0.40;99.90;;;;;;5034218;28;20459;-78
2023/12/05 07:42:57;;;;;;;34.60;26.90;;;0.40;99.90;;;;;;5034335;28;20466;-77
2023/12/05 07:45:25;;;;;;;34.20;27.73;;;0.40;99.90;;;;;;5034283;28;20536;-78
2023/12/05 07:47:54;;;;;;;35.03;26.17;;;0.40;99.90;;;;;;5033825;28;20452;-76
2023/12/05 07:50:22;;;;;;;36.07;27.00;;;0.40;99.90;;;;;;5034390;28;20448;-78
2023/12/05 07:52:52;;;;;;;37.03;27.97;;;0.40;99.90;;;;;;5035673;28;20985;-78
2023/12/05 07:55:21;;;;;;;39.20;27.60;;;0.40;99.90;;;;;;5034048;28;20836;-78
2023/12/05 07:57:50;;;;;;;33.90;27.27;;;0.40;99.90;;;;;;5033728;28;20451;-77
2023/12/05 08:00:19;;;;;;;35.60;26.00;;;0.40;99.90;;;;;;5033724;28;20448;-77
2023/12/05 08:02:48;;;;;;;34.50;26.43;;;0.40;99.90;;;;;;5033759;28;21009;-77
2023/12/05 08:05:16;;;;;;;38.33;29.50;;;0.40;99.90;;;;;;5033760;28;20539;-78
2023/12/05 08:07:45;;;;;;;39.13;30.20;;;0.40;99.90;;;;;;5034248;28;20451;-78
2023/12/05 08:10:14;;;;;;;38.00;30.40;;;0.40;99.90;;;;;;5035186;28;20463;-78
2023/12/05 08:12:42;;;;;;;38.90;29.20;;;0.40;99.90;;;;;;5034698;28;21026;-78
2023/12/05 08:15:11;;;;;;;42.13;29.87;;;0.40;99.90;;;;;;5034916;28;20557;-78
2023/12/05 08:17:39;;;;;;;35.03;26.80;;;0.40;99.90;;;;;;5033901;28;20898;-78
2023/12/05 08:20:08;;;;;;;39.60;28.43;;;0.40;99.90;;;;;;5033731;28;20458;-79
2023/12/05 08:22:37;;;;;;;39.53;28.90;;;0.40;99.90;;;;;;5034762;28;20458;-77
2023/12/05 08:25:07;;;;;;;36.63;30.30;;;0.40;99.90;;;;;;5033425;28;20479;-78
2023/12/05 08:27:37;;;;;;;39.03;29.10;;;0.50;99.90;;;;;;5033458;28;20447;-78
2023/12/05 08:30:06;;;;;;;39.40;30.47;;;0.40;99.90;;;;;;5034468;28;20440;-77
2023/12/05 08:32:35;;;;;;;42.40;28.90;;;0.50;99.90;;;;;;5033044;28;20567;-78
2023/12/05 08:35:04;;;;;;;44.43;32.43;;;0.50;99.90;;;;;;5033068;28;20913;-78
2023/12/05 08:37:32;;;;;;;38.03;30.73;;;0.50;99.90;;;;;;5033184;28;20452;-77
2023/12/05 08:40:01;;;;;;;39.77;29.43;;;0.50;99.90;;;;;;5034293;28;20471;-78
2023/12/05 08:42:29;;;;;;;43.87;32.23;;;0.50;99.90;;;;;;5032844;28;20479;-79
2023/12/05 08:44:59;;;;;;;39.87;30.80;;;0.50;99.90;;;;;;5033261;28;20477;-78
2023/12/05 08:47:27;;;;;;;36.67;28.63;;;0.50;99.90;;;;;;5032591;28;20482;-76
2023/12/05 08:49:56;;;;;;;38.23;29.93;;;0.50;99.90;;;;;;5032415;28;20477;-76
2023/12/05 08:52:24;;;;;;;43.33;32.53;;;0.50;99.90;;;;;;5032281;28;20567;-76
2023/12/05 08:54:53;;;;;;;40.30;28.30;;;0.50;99.90;;;;;;5033525;28;21071;-76
2023/12/05 08:57:21;;;;;;;42.27;32.60;;;0.50;99.90;;;;;;5032424;28;20450;-76
2023/12/05 08:59:49;;;;;;;41.47;30.90;;;0.50;99.90;;;;;;5032866;28;20487;-78
2023/12/05 09:02:21;;;;;;;40.27;31.33;;;0.50;99.90;;;;;;5034030;28;20447;-77
2023/12/05 09:04:49;;;;;;;42.00;32.97;;;0.50;99.90;;;;;;5034703;28;20860;-78
2023/12/05 09:07:18;;;;;;;40.87;29.60;;;0.50;99.90;;;;;;5033985;28;20451;-77
2023/12/05 09:09:46;;;;;;;41.90;29.40;;;0.50;99.90;;;;;;5033183;28;20453;-78
2023/12/05 09:12:15;;;;;;;38.30;29.10;;;0.50;99.90;;;;;;5033327;28;20447;-77
2023/12/05 09:14:43;;;;;;;44.90;32.33;;;0.50;99.90;;;;;;5033093;28;20493;-77
2023/12/05 09:17:12;;;;;;;37.60;27.40;;;0.50;99.90;;;;;;5033488;28;20450;-78
2023/12/05 09:19:42;;;;;;;38.80;27.87;;;0.50;99.90;;;;;;5033098;28;20482;-77
2023/12/05 09:22:10;;;;;;;37.13;28.20;;;0.50;99.90;;;;;;5033172;28;20511;-77
2023/12/05 09:24:38;;;;;;;36.83;29.53;;;0.50;99.90;;;;;;5032031;28;20541;-77
2023/12/05 09:27:07;;;;;;;40.97;31.13;;;0.50;99.90;;;;;;5032656;28;20443;-78
2023/12/05 09:29:35;;;;;;;45.00;31.00;;;0.50;99.90;;;;;;5034217;28;20471;-77
2023/12/05 09:32:17;;;;;;;41.10;29.20;;;0.50;99.90;;;;;;5032845;28;20447;-77
2023/12/05 09:34:48;;;;;;;38.27;29.90;;;0.50;99.90;;;;;;5032475;28;20532;-78
2023/12/05 09:37:16;;;;;;;76.20;53.10;;;0.60;99.90;;;;;;5032929;28;20821;-78
2023/12/05 09:39:44;;;;;;;77.17;51.87;;;0.60;99.90;;;;;;5033058;28;20457;-77
2023/12/05 09:42:14;;;;;;;42.73;31.87;;;0.60;99.90;;;;;;5032728;28;20820;-78
2023/12/05 09:44:46;;;;;;;46.10;33.30;;;0.60;99.90;;;;;;5033224;28;20618;-78
2023/12/05 09:47:19;;;;;;;47.00;37.93;;;0.60;99.90;;;;;;5032943;28;20547;-78
2023/12/05 09:49:48;;;;;;;40.67;30.33;;;0.60;99.90;;;;;;5034874;28;20434;-78
2023/12/05 09:52:18;;;;;;;38.17;31.40;;;0.60;99.90;;;;;;5033060;28;20438;-78
2023/12/05 09:54:48;;;;;;;37.53;31.70;;;0.60;99.90;;;;;;5033134;28;20460;-77
2023/12/05 09:57:16;;;;;;;40.30;31.60;;;0.60;99.90;;;;;;5033264;28;20437;-77
2023/12/05 09:59:45;;;;;;;38.27;30.53;;;0.60;99.90;;;;;;5032604;28;20454;-77
2023/12/05 10:02:15;;;;;;;40.87;32.87;;;0.60;99.90;;;;;;5034047;28;20508;-77
2023/12/05 10:04:45;;;;;;;39.00;29.97;;;0.60;99.90;;;;;;5032982;28;20452;-78
2023/12/05 10:07:16;;;;;;;40.70;29.63;;;0.60;99.90;;;;;;5032835;28;20478;-77
2023/12/05 10:09:45;;;;;;;41.77;30.80;;;0.60;99.90;;;;;;5032978;28;20452;-78
2023/12/05 10:12:13;;;;;;;42.70;30.20;;;0.60;99.90;;;;;;5033463;28;20447;-78
2023/12/05 10:14:43;;;;;;;41.80;32.33;;;0.60;99.90;;;;;;5034484;28;20440;-79
2023/12/05 10:17:12;;;;;;;42.93;32.83;;;0.70;99.90;;;;;;5034913;28;20439;-78
2023/12/05 10:19:40;;;;;;;45.73;32.53;;;0.70;99.90;;;;;;5033253;28;20455;-79
2023/12/05 10:22:09;;;;;;;42.73;30.40;;;0.70;99.90;;;;;;5034935;28;20463;-78
2023/12/05 10:24:44;;;;;;;40.00;30.80;;;0.70;99.90;;;;;;5033693;28;20850;-78
2023/12/05 10:27:13;;;;;;;46.20;31.33;;;0.60;99.90;;;;;;5033626;28;20463;-78
2023/12/05 10:29:42;;;;;;;39.07;30.33;;;0.60;99.90;;;;;;5033198;28;20450;-78
2023/12/05 10:32:12;;;;;;;39.77;31.40;;;0.70;99.90;;;;;;5032951;28;20454;-78
2023/12/05 10:34:48;;;;;;;41.20;31.30;;;0.70;99.90;;;;;;5032639;28;20468;-77
2023/12/05 10:37:22;;;;;;;43.23;31.23;;;0.70;99.90;;;;;;5035435;28;20421;-78
2023/12/05 10:39:52;;;;;;;41.10;29.03;;;0.70;99.90;;;;;;5036143;28;20447;-78
2023/12/05 10:42:25;;;;;;;41.90;30.17;;;0.70;99.90;;;;;;5036145;28;20443;-78
2023/12/05 10:44:53;;;;;;;41.63;31.40;;;0.70;99.90;;;;;;5036159;28;20492;-78
2023/12/05 10:47:23;;;;;;;43.50;34.07;;;0.70;99.90;;;;;;5036051;28;20448;-78
2023/12/05 10:49:53;;;;;;;42.40;32.93;;;0.70;99.90;;;;;;5036034;28;20468;-78
2023/12/05 10:52:22;;;;;;;44.67;36.23;;;0.70;99.90;;;;;;5036146;28;20452;-78
2023/12/05 10:54:56;;;;;;;46.80;35.33;;;0.70;99.90;;;;;;5038471;28;20461;-78
2023/12/05 10:57:32;;;;;;;44.20;33.17;;;0.70;99.90;;;;;;5035787;28;20544;-78
2023/12/05 11:00:03;;;;;;;45.73;33.93;;;0.70;99.90;;;;;;5035484;28;20443;-78
2023/12/05 11:02:32;;;;;;;43.97;34.40;;;0.70;99.90;;;;;;5035607;28;20472;-78
2023/12/05 11:05:04;;;;;;;43.37;34.40;;;0.80;99.90;;;;;;5036151;28;20503;-78
2023/12/05 11:07:32;;;;;;;47.03;34.90;;;0.80;99.90;;;;;;5035809;28;20931;-78
2023/12/05 11:10:02;;;;;;;43.43;31.90;;;0.70;99.90;;;;;;5035075;28;20446;-78
2023/12/05 11:12:32;;;;;;;43.97;32.90;;;0.80;99.90;;;;;;5035269;28;20575;-78
2023/12/05 11:15:02;;;;;;;44.10;32.37;;;0.80;99.90;;;;;;5036746;28;20444;-77
2023/12/05 11:17:36;;;;;;;41.07;31.70;;;0.80;99.90;;;;;;5035233;28;20568;-77
2023/12/05 11:20:17;;;;;;;41.07;31.63;;;0.80;99.90;;;;;;5036503;28;20975;-78
2023/12/05 11:22:56;;;;;;;46.73;33.80;;;0.80;99.90;;;;;;5034878;28;20901;-78
2023/12/05 11:25:47;;;;;;;40.73;30.57;;;0.80;99.90;;;;;;5035010;28;20440;-78
2023/12/05 11:28:38;;;;;;;44.20;32.10;;;0.80;99.90;;;;;;5035049;28;20869;-78
2023/12/05 11:31:17;;;;;;;39.87;30.10;;;0.80;99.90;;;;;;5034463;28;20510;-78
2023/12/05 11:34:10;;;;;;;41.03;32.60;;;0.80;99.90;;;;;;5034214;28;20510;-78
2023/12/05 11:36:50;;;;;;;45.90;31.50;;;0.90;99.90;;;;;;4998396;28;20485;-77
2023/12/05 11:39:19;;;;;;;39.93;30.87;;;0.90;99.90;;;;;;5034954;28;20452;-78
2023/12/05 11:42:14;;;;;;;39.30;30.80;;;0.90;99.90;;;;;;5035573;28;20442;-78
2023/12/05 11:44:43;;;;;;;43.90;30.60;;;0.90;99.90;;;;;;5035335;28;20520;-77
2023/12/05 11:47:15;;;;;;;42.73;31.43;;;0.90;99.90;;;;;;5033891;28;20548;-77
2023/12/05 11:49:50;;;;;;;39.87;31.37;;;0.90;99.90;;;;;;5035173;28;20425;-77
2023/12/05 11:52:20;;;;;;;41.70;33.30;;;0.90;99.90;;;;;;5033939;28;20445;-77
2023/12/05 11:54:52;;;;;;;39.90;30.80;;;0.90;99.90;;;;;;5033639;28;20484;-77
2023/12/05 11:57:23;;;;;;;41.03;32.50;;;0.90;99.90;;;;;;5033380;28;20466;-77
2023/12/05 11:59:54;;;;;;;38.47;32.00;;;1.00;99.90;;;;;;5033475;28;20811;-77
2023/12/05 12:02:40;;;;;;;44.10;31.60;;;1.00;99.90;;;;;;5034733;28;20521;-77
2023/12/05 12:05:11;;;;;;;42.63;29.97;;;1.00;99.90;;;;;;5034803;28;20417;-77
2023/12/05 12:07:50;;;;;;;43.00;30.87;;;1.00;99.90;;;;;;5033386;28;20431;-77
2023/12/05 12:10:19;;;;;;;33.80;25.87;;;1.00;99.90;;;;;;5034919;28;20466;-77
2023/12/05 12:12:50;;;;;;;37.87;30.30;;;1.00;99.90;;;;;;5033166;28;20473;-77
2023/12/05 12:15:19;;;;;;;43.67;32.60;;;1.00;99.90;;;;;;5034477;28;20508;-77
2023/12/05 12:17:48;;;;;;;35.43;27.63;;;1.00;99.90;;;;;;5033067;28;20544;-77
2023/12/05 12:20:17;;;;;;;34.03;27.23;;;1.00;99.90;;;;;;5033510;28;20945;-78
2023/12/05 12:22:51;;;;;;;38.47;29.90;;;1.00;99.90;;;;;;5033811;28;20996;-78
2023/12/05 12:25:20;;;;;;;38.37;30.90;;;1.00;99.90;;;;;;5034001;28;20489;-78
2023/12/05 12:27:49;;;;;;;36.60;30.60;;;1.00;99.90;;;;;;5034994;28;20931;-77
2023/12/05 12:30:18;;;;;;;39.40;28.37;;;1.00;99.90;;;;;;5034006;28;20502;-77
2023/12/05 12:32:55;;;;;;;36.47;28.17;;;1.00;99.90;;;;;;5035012;28;20970;-78
2023/12/05 12:35:24;;;;;;;36.97;31.50;;;1.00;99.90;;;;;;5034884;28;20456;-77
2023/12/05 12:37:53;;;;;;;42.03;30.40;;;1.00;99.90;;;;;;5033409;28;20527;-77
2023/12/05 12:40:23;;;;;;;37.63;31.13;;;1.00;99.90;;;;;;5033631;28;20453;-78
2023/12/05 12:42:54;;;;;;;42.50;32.70;;;1.00;99.90;;;;;;5033281;28;20570;-77
2023/12/05 12:45:26;;;;;;;38.17;31.03;;;1.00;99.90;;;;;;5034775;28;20442;-77
2023/12/05 12:47:55;;;;;;;38.33;29.70;;;1.00;99.90;;;;;;5033515;28;20450;-77